createdAt,value
2023-04-23T00:05:28.224Z,5.61
2023-04-23T00:13:51.744Z,5.55
2023-04-23T00:22:17.116Z,5.44
2023-04-23T00:30:40.273Z,5.36
2023-04-23T00:39:03.489Z,5.33
2023-04-23T00:47:26.629Z,5.26
2023-04-23T00:55:49.733Z,5.11
2023-04-23T01:04:16.429Z,4.95
2023-04-23T01:12:39.727Z,4.88
2023-04-23T01:21:04.962Z,4.90
2023-04-23T01:29:29.436Z,4.90
2023-04-23T01:37:53.928Z,4.86
2023-04-23T01:46:16.896Z,4.85
2023-04-23T01:54:40.547Z,4.85
2023-04-23T02:03:04.095Z,4.81
2023-04-23T02:11:27.225Z,4.72
2023-04-23T02:19:50.551Z,4.63
2023-04-23T02:28:13.672Z,4.62
2023-04-23T02:36:38.392Z,4.66
2023-04-23T02:45:01.596Z,4.66
2023-04-23T02:53:24.764Z,4.54
2023-04-23T03:01:47.733Z,4.47
2023-04-23T03:10:11.115Z,4.43
2023-04-23T03:18:34.526Z,4.36
2023-04-23T03:26:58.168Z,4.26
2023-04-23T03:35:21.423Z,4.22
2023-04-23T03:43:45.536Z,4.27
2023-04-23T03:52:14.197Z,4.31
2023-04-23T04:00:38.414Z,4.35
2023-04-23T04:09:01.337Z,5.36
2023-04-23T04:17:25.352Z,7.47
2023-04-23T04:25:51.138Z,9.43
2023-04-23T04:34:15.009Z,10.72
2023-04-23T04:42:39.623Z,11.62
2023-04-23T04:51:02.658Z,10.63
2023-04-23T04:59:25.595Z,9.74
2023-04-23T05:07:48.635Z,10.09
2023-04-23T05:16:12.226Z,10.07
2023-04-23T05:24:35.321Z,10.29
2023-04-23T05:32:58.300Z,10.99
2023-04-23T05:41:21.602Z,12.06
2023-04-23T05:49:44.558Z,13.05
2023-04-23T05:58:07.695Z,14.00
2023-04-23T06:06:31.685Z,14.75
2023-04-23T06:14:54.899Z,15.41
2023-04-23T06:23:17.999Z,16.02
2023-04-23T06:31:42.026Z,16.60
2023-04-23T06:40:05.513Z,17.27
2023-04-23T06:48:28.445Z,17.74
2023-04-23T06:56:51.398Z,18.30
2023-04-23T07:05:15.213Z,18.99
2023-04-23T07:13:40.409Z,19.69
2023-04-23T07:22:04.022Z,19.92
2023-04-23T07:30:27.768Z,20.07
2023-04-23T07:38:51.224Z,20.02
2023-04-23T07:47:14.233Z,19.91
2023-04-23T07:55:37.528Z,20.20
2023-04-23T08:04:01.209Z,20.62
2023-04-23T08:12:24.438Z,20.98
2023-04-23T08:20:47.352Z,21.23
2023-04-23T08:29:11.527Z,21.33
2023-04-23T08:37:34.732Z,21.29
2023-04-23T08:46:07.180Z,21.20
2023-04-23T08:54:35.360Z,21.35
2023-04-23T09:02:58.652Z,21.30
2023-04-23T09:11:24.162Z,21.38
2023-04-23T09:19:47.180Z,21.52
2023-04-23T09:28:14.241Z,21.74
2023-04-23T09:36:37.703Z,21.91
2023-04-23T09:45:04.613Z,22.09
2023-04-23T09:53:29.164Z,22.14
2023-04-23T10:01:53.184Z,22.12
2023-04-23T10:10:16.987Z,21.89
2023-04-23T10:18:40.045Z,21.86
2023-04-23T10:27:04.973Z,21.88
2023-04-23T10:35:29.175Z,21.98
2023-04-23T10:43:53.665Z,21.97
2023-04-23T10:52:21.518Z,22.10
2023-04-23T11:00:46.962Z,22.09
2023-04-23T11:09:33.657Z,22.03
2023-04-23T11:17:59.903Z,22.06
2023-04-23T11:26:28.087Z,22.06
2023-04-23T11:34:53.637Z,22.07
2023-04-23T11:43:21.361Z,22.00
2023-04-23T11:51:45.586Z,22.06
2023-04-23T12:00:17.053Z,22.09
2023-04-23T12:08:43.034Z,22.31
2023-04-23T12:17:11.417Z,22.37
2023-04-23T12:25:35.646Z,22.25
2023-04-23T12:34:02.166Z,22.27
2023-04-23T12:42:26.172Z,22.22
2023-04-23T12:50:49.261Z,22.06
2023-04-23T12:59:12.309Z,22.04
2023-04-23T13:07:35.531Z,22.09
2023-04-23T13:15:58.984Z,22.01
2023-04-23T13:24:21.958Z,21.80
2023-04-23T13:32:44.938Z,21.81
2023-04-23T13:41:07.924Z,21.85
2023-04-23T13:49:30.940Z,21.84
2023-04-23T13:57:58.013Z,21.81
2023-04-23T14:06:20.920Z,21.81
2023-04-23T14:14:44.000Z,21.75
2023-04-23T14:23:22.193Z,21.56
2023-04-23T14:31:45.803Z,21.39
2023-04-23T14:40:09.629Z,21.27
2023-04-23T14:48:32.867Z,21.14
2023-04-23T14:56:56.962Z,21.10
2023-04-23T15:05:20.620Z,21.04
2023-04-23T15:14:26.374Z,20.94
2023-04-23T15:22:49.465Z,20.78
2023-04-23T15:31:12.582Z,20.63
2023-04-23T15:39:35.544Z,20.47
2023-04-23T15:47:58.506Z,20.37
2023-04-23T15:56:22.131Z,20.22
2023-04-23T16:04:46.346Z,20.05
2023-04-23T16:13:09.688Z,19.86
2023-04-23T16:21:32.938Z,19.64
2023-04-23T16:29:55.896Z,19.40
2023-04-23T16:38:19.017Z,19.12
2023-04-23T16:46:42.085Z,18.82
2023-04-23T16:55:05.931Z,18.47
2023-04-23T17:03:29.741Z,18.12
2023-04-23T17:11:53.159Z,17.72
2023-04-23T17:20:16.960Z,17.30
2023-04-23T17:28:42.949Z,16.85
2023-04-23T17:37:06.163Z,16.40
2023-04-23T17:45:29.855Z,15.97
2023-04-23T17:53:52.976Z,15.52
2023-04-23T18:02:16.488Z,15.05
2023-04-23T18:10:39.681Z,14.65
2023-04-23T18:19:03.262Z,14.29
2023-04-23T18:27:27.059Z,13.97
2023-04-23T18:35:52.565Z,13.66
2023-04-23T18:44:16.631Z,13.38
2023-04-23T18:52:39.765Z,13.14
2023-04-23T19:01:02.775Z,12.93
2023-04-23T19:09:26.848Z,12.76
2023-04-23T19:17:49.917Z,12.59
2023-04-23T19:26:13.752Z,12.45
2023-04-23T19:34:36.864Z,12.34
2023-04-23T19:42:59.826Z,12.22
2023-04-23T19:51:28.079Z,12.00
2023-04-23T19:59:51.482Z,11.76
2023-04-23T20:08:26.240Z,11.51
2023-04-23T20:16:49.584Z,11.26
2023-04-23T20:25:13.675Z,11.01
2023-04-23T20:33:37.895Z,10.78
2023-04-23T20:42:01.474Z,10.58
2023-04-23T20:50:24.702Z,10.37
2023-04-23T20:58:47.904Z,10.18
2023-04-23T21:07:10.971Z,9.99
2023-04-23T21:15:35.383Z,9.81
2023-04-23T21:24:01.173Z,9.64
2023-04-23T21:32:24.182Z,9.43
2023-04-23T21:40:47.425Z,9.27
2023-04-23T21:49:11.507Z,9.19
2023-04-23T21:57:35.315Z,9.13
2023-04-23T22:05:58.643Z,9.07
2023-04-23T22:14:21.818Z,9.03
2023-04-23T22:22:44.817Z,9.08
2023-04-23T22:31:07.917Z,9.31
2023-04-23T22:39:31.016Z,9.56
2023-04-23T22:47:54.441Z,9.69
2023-04-23T22:56:17.819Z,9.69
2023-04-23T23:04:41.171Z,9.59
2023-04-23T23:13:04.627Z,9.48
2023-04-23T23:21:27.824Z,9.32
2023-04-23T23:29:50.925Z,9.12
2023-04-23T23:38:14.319Z,8.92
2023-04-23T23:46:37.474Z,8.83
2023-04-23T23:55:00.848Z,8.78
